sensor_id;sensor_type;location;lat;lon;timestamp;P1;durP1;ratioP1;P2;durP2;ratioP2
14358;SDS011;7263;49.418;11.064;2022-10-31T00:01:49;12.63;;;8.97;;
14358;SDS011;7263;49.418;11.064;2022-10-31T00:04:16;13.77;;;9.00;;
14358;SDS011;7263;49.418;11.064;2022-10-31T00:06:43;15.80;;;9.07;;
14358;SDS011;7263;49.418;11.064;2022-10-31T00:09:11;12.70;;;9.03;;
14358;SDS011;7263;49.418;11.064;2022-10-31T00:11:38;12.93;;;9.13;;
14358;SDS011;7263;49.418;11.064;2022-10-31T00:14:05;13.13;;;8.77;;
14358;SDS011;7263;49.418;11.064;2022-10-31T00:16:32;13.13;;;8.60;;
14358;SDS011;7263;49.418;11.064;2022-10-31T00:19:01;11.87;;;8.60;;
14358;SDS011;7263;49.418;11.064;2022-10-31T00:21:29;12.30;;;8.77;;
14358;SDS011;7263;49.418;11.064;2022-10-31T00:23:57;12.60;;;9.27;;
14358;SDS011;7263;49.418;11.064;2022-10-31T00:26:26;11.97;;;8.73;;
14358;SDS011;7263;49.418;11.064;2022-10-31T00:28:52;11.60;;;8.70;;
14358;SDS011;7263;49.418;11.064;2022-10-31T00:31:20;12.07;;;8.37;;
14358;SDS011;7263;49.418;11.064;2022-10-31T00:33:47;10.83;;;8.57;;
14358;SDS011;7263;49.418;11.064;2022-10-31T00:36:14;12.10;;;8.40;;
14358;SDS011;7263;49.418;11.064;2022-10-31T00:38:43;14.17;;;9.43;;
14358;SDS011;7263;49.418;11.064;2022-10-31T00:41:10;14.97;;;9.53;;
14358;SDS011;7263;49.418;11.064;2022-10-31T00:43:39;11.57;;;8.80;;
14358;SDS011;7263;49.418;11.064;2022-10-31T00:46:06;12.50;;;9.03;;
14358;SDS011;7263;49.418;11.064;2022-10-31T00:48:34;9.43;;;7.67;;
14358;SDS011;7263;49.418;11.064;2022-10-31T00:51:01;11.63;;;8.47;;
14358;SDS011;7263;49.418;11.064;2022-10-31T00:53:28;10.17;;;8.43;;
14358;SDS011;7263;49.418;11.064;2022-10-31T00:55:55;13.63;;;9.30;;
14358;SDS011;7263;49.418;11.064;2022-10-31T00:58:22;13.83;;;9.50;;
14358;SDS011;7263;49.418;11.064;2022-10-31T01:00:50;14.33;;;9.30;;
14358;SDS011;7263;49.418;11.064;2022-10-31T01:03:20;13.23;;;8.90;;
14358;SDS011;7263;49.418;11.064;2022-10-31T01:05:54;12.60;;;8.83;;
14358;SDS011;7263;49.418;11.064;2022-10-31T01:08:25;11.20;;;8.67;;
14358;SDS011;7263;49.418;11.064;2022-10-31T01:11:03;13.20;;;9.20;;
14358;SDS011;7263;49.418;11.064;2022-10-31T01:13:32;13.53;;;9.23;;
14358;SDS011;7263;49.418;11.064;2022-10-31T01:16:00;13.17;;;9.13;;
14358;SDS011;7263;49.418;11.064;2022-10-31T01:18:28;22.53;;;16.10;;
14358;SDS011;7263;49.418;11.064;2022-10-31T01:20:59;15.87;;;10.10;;
14358;SDS011;7263;49.418;11.064;2022-10-31T01:23:27;15.80;;;9.77;;
14358;SDS011;7263;49.418;11.064;2022-10-31T01:25:58;12.23;;;8.60;;
14358;SDS011;7263;49.418;11.064;2022-10-31T01:28:26;11.23;;;8.20;;
14358;SDS011;7263;49.418;11.064;2022-10-31T01:30:53;9.80;;;8.13;;
14358;SDS011;7263;49.418;11.064;2022-10-31T01:33:22;14.87;;;8.30;;
14358;SDS011;7263;49.418;11.064;2022-10-31T01:35:48;15.17;;;8.43;;
14358;SDS011;7263;49.418;11.064;2022-10-31T01:38:16;12.77;;;8.73;;
14358;SDS011;7263;49.418;11.064;2022-10-31T01:40:43;15.57;;;9.00;;
14358;SDS011;7263;49.418;11.064;2022-10-31T01:43:11;12.00;;;8.63;;
14358;SDS011;7263;49.418;11.064;2022-10-31T01:45:39;10.80;;;8.70;;
14358;SDS011;7263;49.418;11.064;2022-10-31T01:48:07;14.53;;;8.23;;
14358;SDS011;7263;49.418;11.064;2022-10-31T01:50:41;13.17;;;8.77;;
14358;SDS011;7263;49.418;11.064;2022-10-31T01:53:09;12.93;;;8.10;;
14358;SDS011;7263;49.418;11.064;2022-10-31T01:55:38;8.83;;;7.87;;
14358;SDS011;7263;49.418;11.064;2022-10-31T01:58:06;13.93;;;8.47;;
14358;SDS011;7263;49.418;11.064;2022-10-31T02:00:34;13.80;;;8.47;;
14358;SDS011;7263;49.418;11.064;2022-10-31T02:03:01;9.40;;;7.27;;
14358;SDS011;7263;49.418;11.064;2022-10-31T02:05:29;10.57;;;7.87;;
14358;SDS011;7263;49.418;11.064;2022-10-31T02:07:58;11.87;;;7.33;;
14358;SDS011;7263;49.418;11.064;2022-10-31T02:10:27;9.93;;;7.57;;
14358;SDS011;7263;49.418;11.064;2022-10-31T02:12:56;11.40;;;7.37;;
14358;SDS011;7263;49.418;11.064;2022-10-31T02:15:23;11.90;;;7.97;;
14358;SDS011;7263;49.418;11.064;2022-10-31T02:17:51;9.90;;;8.23;;
14358;SDS011;7263;49.418;11.064;2022-10-31T02:20:18;19.43;;;9.77;;
14358;SDS011;7263;49.418;11.064;2022-10-31T02:28:46;10.67;;;8.00;;
14358;SDS011;7263;49.418;11.064;2022-10-31T02:31:28;14.50;;;8.63;;
14358;SDS011;7263;49.418;11.064;2022-10-31T02:34:01;13.00;;;8.60;;
14358;SDS011;7263;49.418;11.064;2022-10-31T02:36:39;12.33;;;7.93;;
14358;SDS011;7263;49.418;11.064;2022-10-31T02:39:10;11.93;;;8.00;;
14358;SDS011;7263;49.418;11.064;2022-10-31T02:41:45;11.80;;;8.43;;
14358;SDS011;7263;49.418;11.064;2022-10-31T02:44:15;10.23;;;8.50;;
14358;SDS011;7263;49.418;11.064;2022-10-31T02:46:50;9.97;;;8.40;;
14358;SDS011;7263;49.418;11.064;2022-10-31T02:49:22;10.67;;;7.90;;
14358;SDS011;7263;49.418;11.064;2022-10-31T02:51:50;10.80;;;8.30;;
14358;SDS011;7263;49.418;11.064;2022-10-31T02:54:19;11.83;;;8.53;;
14358;SDS011;7263;49.418;11.064;2022-10-31T02:56:46;12.30;;;8.27;;
14358;SDS011;7263;49.418;11.064;2022-10-31T02:59:15;14.50;;;7.93;;
14358;SDS011;7263;49.418;11.064;2022-10-31T03:01:48;10.50;;;9.30;;
14358;SDS011;7263;49.418;11.064;2022-10-31T03:07:39;14.20;;;8.97;;
14358;SDS011;7263;49.418;11.064;2022-10-31T03:10:09;11.33;;;7.97;;
14358;SDS011;7263;49.418;11.064;2022-10-31T03:12:40;12.57;;;8.10;;
14358;SDS011;7263;49.418;11.064;2022-10-31T03:15:12;9.37;;;8.00;;
14358;SDS011;7263;49.418;11.064;2022-10-31T03:17:45;9.70;;;7.83;;
14358;SDS011;7263;49.418;11.064;2022-10-31T03:20:22;12.23;;;7.77;;
14358;SDS011;7263;49.418;11.064;2022-10-31T03:22:54;10.27;;;7.50;;
14358;SDS011;7263;49.418;11.064;2022-10-31T03:25:22;10.20;;;7.47;;
14358;SDS011;7263;49.418;11.064;2022-10-31T03:27:49;10.90;;;7.67;;
14358;SDS011;7263;49.418;11.064;2022-10-31T03:30:18;11.27;;;7.70;;
14358;SDS011;7263;49.418;11.064;2022-10-31T03:32:47;9.70;;;8.10;;
14358;SDS011;7263;49.418;11.064;2022-10-31T03:35:17;10.37;;;7.70;;
14358;SDS011;7263;49.418;11.064;2022-10-31T03:37:46;9.27;;;8.37;;
14358;SDS011;7263;49.418;11.064;2022-10-31T03:40:14;12.43;;;8.00;;
14358;SDS011;7263;49.418;11.064;2022-10-31T03:42:46;11.77;;;8.17;;
14358;SDS011;7263;49.418;11.064;2022-10-31T03:45:20;11.93;;;8.67;;
14358;SDS011;7263;49.418;11.064;2022-10-31T03:47:50;9.30;;;8.30;;
14358;SDS011;7263;49.418;11.064;2022-10-31T03:50:17;13.33;;;8.53;;
14358;SDS011;7263;49.418;11.064;2022-10-31T03:52:45;11.73;;;9.10;;
14358;SDS011;7263;49.418;11.064;2022-10-31T03:55:17;9.13;;;8.03;;
14358;SDS011;7263;49.418;11.064;2022-10-31T03:57:45;11.57;;;8.73;;
14358;SDS011;7263;49.418;11.064;2022-10-31T04:00:16;11.50;;;8.30;;
14358;SDS011;7263;49.418;11.064;2022-10-31T04:02:45;16.20;;;9.10;;
14358;SDS011;7263;49.418;11.064;2022-10-31T04:05:14;10.73;;;9.03;;
14358;SDS011;7263;49.418;11.064;2022-10-31T04:07:43;13.23;;;9.00;;
14358;SDS011;7263;49.418;11.064;2022-10-31T04:10:12;11.87;;;8.40;;
14358;SDS011;7263;49.418;11.064;2022-10-31T04:12:40;11.80;;;9.17;;
14358;SDS011;7263;49.418;11.064;2022-10-31T04:15:08;8.93;;;7.57;;
14358;SDS011;7263;49.418;11.064;2022-10-31T04:17:37;10.93;;;7.43;;
14358;SDS011;7263;49.418;11.064;2022-10-31T04:20:06;11.47;;;7.80;;
14358;SDS011;7263;49.418;11.064;2022-10-31T04:22:35;10.73;;;7.70;;
14358;SDS011;7263;49.418;11.064;2022-10-31T04:25:02;12.03;;;7.63;;
14358;SDS011;7263;49.418;11.064;2022-10-31T04:27:29;9.93;;;8.93;;
14358;SDS011;7263;49.418;11.064;2022-10-31T04:29:56;16.20;;;9.67;;
14358;SDS011;7263;49.418;11.064;2022-10-31T04:32:24;11.47;;;9.33;;
14358;SDS011;7263;49.418;11.064;2022-10-31T04:34:51;10.83;;;9.00;;
14358;SDS011;7263;49.418;11.064;2022-10-31T04:37:18;10.03;;;7.93;;
14358;SDS011;7263;49.418;11.064;2022-10-31T04:39:46;11.90;;;8.40;;
14358;SDS011;7263;49.418;11.064;2022-10-31T04:42:13;9.67;;;7.20;;
14358;SDS011;7263;49.418;11.064;2022-10-31T04:44:40;7.93;;;7.10;;
14358;SDS011;7263;49.418;11.064;2022-10-31T04:47:07;12.77;;;8.90;;
14358;SDS011;7263;49.418;11.064;2022-10-31T04:49:34;10.33;;;8.57;;
14358;SDS011;7263;49.418;11.064;2022-10-31T04:52:01;13.83;;;8.87;;
14358;SDS011;7263;49.418;11.064;2022-10-31T04:54:28;12.47;;;8.53;;
14358;SDS011;7263;49.418;11.064;2022-10-31T04:56:57;9.73;;;7.73;;
14358;SDS011;7263;49.418;11.064;2022-10-31T04:59:24;10.93;;;8.00;;
14358;SDS011;7263;49.418;11.064;2022-10-31T05:01:51;10.77;;;8.07;;
14358;SDS011;7263;49.418;11.064;2022-10-31T05:04:18;10.23;;;8.20;;
14358;SDS011;7263;49.418;11.064;2022-10-31T05:06:45;9.57;;;7.30;;
14358;SDS011;7263;49.418;11.064;2022-10-31T05:09:12;8.27;;;7.20;;
14358;SDS011;7263;49.418;11.064;2022-10-31T05:11:39;11.53;;;7.60;;
14358;SDS011;7263;49.418;11.064;2022-10-31T05:14:08;10.43;;;7.87;;
14358;SDS011;7263;49.418;11.064;2022-10-31T05:16:34;9.50;;;7.80;;
14358;SDS011;7263;49.418;11.064;2022-10-31T05:19:02;10.23;;;8.27;;
14358;SDS011;7263;49.418;11.064;2022-10-31T05:21:29;10.30;;;7.27;;
14358;SDS011;7263;49.418;11.064;2022-10-31T05:23:56;10.80;;;7.83;;
14358;SDS011;7263;49.418;11.064;2022-10-31T05:26:23;11.47;;;8.40;;
14358;SDS011;7263;49.418;11.064;2022-10-31T05:28:50;12.20;;;7.80;;
14358;SDS011;7263;49.418;11.064;2022-10-31T05:31:19;11.80;;;7.93;;
14358;SDS011;7263;49.418;11.064;2022-10-31T05:33:46;12.30;;;7.93;;
14358;SDS011;7263;49.418;11.064;2022-10-31T05:36:13;11.67;;;7.57;;
14358;SDS011;7263;49.418;11.064;2022-10-31T05:38:40;10.93;;;8.10;;
14358;SDS011;7263;49.418;11.064;2022-10-31T05:41:07;11.70;;;7.43;;
14358;SDS011;7263;49.418;11.064;2022-10-31T05:43:35;9.60;;;7.33;;
14358;SDS011;7263;49.418;11.064;2022-10-31T05:46:02;14.20;;;8.40;;
14358;SDS011;7263;49.418;11.064;2022-10-31T05:48:31;14.17;;;8.30;;
14358;SDS011;7263;49.418;11.064;2022-10-31T05:50:58;14.63;;;8.90;;
14358;SDS011;7263;49.418;11.064;2022-10-31T05:53:25;10.10;;;8.50;;
14358;SDS011;7263;49.418;11.064;2022-10-31T05:55:52;32.00;;;11.47;;
14358;SDS011;7263;49.418;11.064;2022-10-31T05:58:19;13.07;;;9.77;;
14358;SDS011;7263;49.418;11.064;2022-10-31T06:00:46;13.60;;;9.90;;
14358;SDS011;7263;49.418;11.064;2022-10-31T06:03:13;17.10;;;11.07;;
14358;SDS011;7263;49.418;11.064;2022-10-31T06:05:41;13.23;;;9.53;;
14358;SDS011;7263;49.418;11.064;2022-10-31T06:08:09;15.00;;;10.03;;
14358;SDS011;7263;49.418;11.064;2022-10-31T06:10:36;15.50;;;10.40;;
14358;SDS011;7263;49.418;11.064;2022-10-31T06:13:03;16.40;;;9.63;;
14358;SDS011;7263;49.418;11.064;2022-10-31T06:15:31;15.63;;;9.77;;
14358;SDS011;7263;49.418;11.064;2022-10-31T06:17:59;13.17;;;10.40;;
14358;SDS011;7263;49.418;11.064;2022-10-31T06:20:26;12.93;;;9.23;;
14358;SDS011;7263;49.418;11.064;2022-10-31T06:22:55;14.33;;;9.33;;
14358;SDS011;7263;49.418;11.064;2022-10-31T06:25:22;12.80;;;9.10;;
14358;SDS011;7263;49.418;11.064;2022-10-31T06:27:49;13.73;;;9.50;;
14358;SDS011;7263;49.418;11.064;2022-10-31T06:30:16;11.77;;;9.53;;
14358;SDS011;7263;49.418;11.064;2022-10-31T06:32:43;12.97;;;8.90;;
14358;SDS011;7263;49.418;11.064;2022-10-31T06:35:10;11.97;;;9.20;;
14358;SDS011;7263;49.418;11.064;2022-10-31T06:37:38;16.43;;;9.63;;
14358;SDS011;7263;49.418;11.064;2022-10-31T06:40:07;12.80;;;9.47;;
14358;SDS011;7263;49.418;11.064;2022-10-31T06:42:34;13.90;;;8.80;;
14358;SDS011;7263;49.418;11.064;2022-10-31T06:45:01;13.13;;;8.93;;
14358;SDS011;7263;49.418;11.064;2022-10-31T06:47:29;12.87;;;9.17;;
14358;SDS011;7263;49.418;11.064;2022-10-31T06:49:56;11.60;;;8.83;;
14358;SDS011;7263;49.418;11.064;2022-10-31T06:52:23;12.63;;;9.00;;
14358;SDS011;7263;49.418;11.064;2022-10-31T06:54:50;15.10;;;8.23;;
14358;SDS011;7263;49.418;11.064;2022-10-31T06:57:18;10.90;;;9.10;;
14358;SDS011;7263;49.418;11.064;2022-10-31T06:59:45;14.30;;;8.80;;
14358;SDS011;7263;49.418;11.064;2022-10-31T07:02:12;12.10;;;9.07;;
14358;SDS011;7263;49.418;11.064;2022-10-31T07:04:39;12.47;;;9.23;;
14358;SDS011;7263;49.418;11.064;2022-10-31T07:07:06;9.97;;;8.23;;
14358;SDS011;7263;49.418;11.064;2022-10-31T07:09:33;13.40;;;8.47;;
14358;SDS011;7263;49.418;11.064;2022-10-31T07:12:00;10.73;;;7.97;;
14358;SDS011;7263;49.418;11.064;2022-10-31T07:14:29;13.70;;;9.23;;
14358;SDS011;7263;49.418;11.064;2022-10-31T07:16:56;13.17;;;8.60;;
14358;SDS011;7263;49.418;11.064;2022-10-31T07:19:23;11.43;;;8.53;;
14358;SDS011;7263;49.418;11.064;2022-10-31T07:21:50;12.30;;;8.53;;
14358;SDS011;7263;49.418;11.064;2022-10-31T07:24:17;10.47;;;8.03;;
14358;SDS011;7263;49.418;11.064;2022-10-31T07:26:45;10.20;;;8.77;;
14358;SDS011;7263;49.418;11.064;2022-10-31T07:29:12;11.23;;;8.93;;
14358;SDS011;7263;49.418;11.064;2022-10-31T07:31:40;15.73;;;9.50;;
14358;SDS011;7263;49.418;11.064;2022-10-31T07:34:09;11.23;;;9.20;;
14358;SDS011;7263;49.418;11.064;2022-10-31T07:36:35;11.07;;;8.20;;
14358;SDS011;7263;49.418;11.064;2022-10-31T07:39:02;12.63;;;7.27;;
14358;SDS011;7263;49.418;11.064;2022-10-31T07:41:29;8.10;;;7.30;;
14358;SDS011;7263;49.418;11.064;2022-10-31T07:43:56;9.37;;;6.37;;
14358;SDS011;7263;49.418;11.064;2022-10-31T07:46:23;9.77;;;6.30;;
14358;SDS011;7263;49.418;11.064;2022-10-31T07:48:51;9.00;;;6.50;;
14358;SDS011;7263;49.418;11.064;2022-10-31T07:51:18;6.50;;;5.87;;
14358;SDS011;7263;49.418;11.064;2022-10-31T07:53:45;10.60;;;6.73;;
14358;SDS011;7263;49.418;11.064;2022-10-31T07:56:12;7.70;;;6.30;;
14358;SDS011;7263;49.418;11.064;2022-10-31T07:58:39;7.97;;;5.87;;
14358;SDS011;7263;49.418;11.064;2022-10-31T08:01:06;10.57;;;5.23;;
14358;SDS011;7263;49.418;11.064;2022-10-31T08:03:33;10.67;;;6.03;;
14358;SDS011;7263;49.418;11.064;2022-10-31T08:06:01;20.57;;;6.77;;
14358;SDS011;7263;49.418;11.064;2022-10-31T08:08:28;9.70;;;5.30;;
14358;SDS011;7263;49.418;11.064;2022-10-31T08:10:55;9.17;;;5.73;;
14358;SDS011;7263;49.418;11.064;2022-10-31T08:13:22;11.70;;;5.50;;
14358;SDS011;7263;49.418;11.064;2022-10-31T08:15:49;8.45;;;5.00;;
14358;SDS011;7263;49.418;11.064;2022-10-31T08:18:17;7.55;;;4.95;;
14358;SDS011;7263;49.418;11.064;2022-10-31T08:20:44;8.00;;;5.18;;
14358;SDS011;7263;49.418;11.064;2022-10-31T08:23:12;11.05;;;5.20;;
14358;SDS011;7263;49.418;11.064;2022-10-31T08:25:39;14.30;;;5.65;;
14358;SDS011;7263;49.418;11.064;2022-10-31T08:28:08;8.00;;;5.15;;
14358;SDS011;7263;49.418;11.064;2022-10-31T08:30:36;7.40;;;4.50;;
14358;SDS011;7263;49.418;11.064;2022-10-31T08:33:04;8.73;;;4.93;;
14358;SDS011;7263;49.418;11.064;2022-10-31T08:35:34;5.90;;;4.47;;
14358;SDS011;7263;49.418;11.064;2022-10-31T08:38:01;5.88;;;3.90;;
14358;SDS011;7263;49.418;11.064;2022-10-31T08:40:30;9.00;;;4.63;;
14358;SDS011;7263;49.418;11.064;2022-10-31T08:42:58;6.07;;;4.38;;
14358;SDS011;7263;49.418;11.064;2022-10-31T08:45:26;8.20;;;4.60;;
14358;SDS011;7263;49.418;11.064;2022-10-31T08:47:56;8.23;;;4.97;;
14358;SDS011;7263;49.418;11.064;2022-10-31T08:50:24;7.30;;;4.63;;
14358;SDS011;7263;49.418;11.064;2022-10-31T08:52:51;6.72;;;4.75;;
14358;SDS011;7263;49.418;11.064;2022-10-31T08:55:18;6.28;;;4.90;;
14358;SDS011;7263;49.418;11.064;2022-10-31T08:57:46;9.23;;;5.03;;
14358;SDS011;7263;49.418;11.064;2022-10-31T09:00:13;6.05;;;4.93;;
14358;SDS011;7263;49.418;11.064;2022-10-31T09:02:40;7.80;;;5.05;;
14358;SDS011;7263;49.418;11.064;2022-10-31T09:05:07;8.70;;;5.05;;
14358;SDS011;7263;49.418;11.064;2022-10-31T09:07:34;8.75;;;5.03;;
14358;SDS011;7263;49.418;11.064;2022-10-31T09:10:01;6.38;;;5.00;;
14358;SDS011;7263;49.418;11.064;2022-10-31T09:12:28;9.10;;;5.65;;
14358;SDS011;7263;49.418;11.064;2022-10-31T09:14:56;7.57;;;4.90;;
14358;SDS011;7263;49.418;11.064;2022-10-31T09:17:22;9.20;;;4.80;;
14358;SDS011;7263;49.418;11.064;2022-10-31T09:19:51;9.38;;;5.18;;
14358;SDS011;7263;49.418;11.064;2022-10-31T09:22:18;6.68;;;4.32;;
14358;SDS011;7263;49.418;11.064;2022-10-31T09:24:45;8.85;;;5.18;;
14358;SDS011;7263;49.418;11.064;2022-10-31T09:27:11;8.07;;;5.00;;
14358;SDS011;7263;49.418;11.064;2022-10-31T09:29:38;6.70;;;4.55;;
14358;SDS011;7263;49.418;11.064;2022-10-31T09:32:06;6.82;;;5.20;;
14358;SDS011;7263;49.418;11.064;2022-10-31T09:34:33;8.27;;;5.18;;
14358;SDS011;7263;49.418;11.064;2022-10-31T09:37:00;6.63;;;5.80;;
14358;SDS011;7263;49.418;11.064;2022-10-31T09:39:26;5.65;;;4.72;;
14358;SDS011;7263;49.418;11.064;2022-10-31T09:41:57;11.13;;;5.45;;
14358;SDS011;7263;49.418;11.064;2022-10-31T09:44:32;9.95;;;5.30;;
14358;SDS011;7263;49.418;11.064;2022-10-31T09:47:10;8.27;;;5.20;;
14358;SDS011;7263;49.418;11.064;2022-10-31T09:49:50;6.53;;;5.13;;
14358;SDS011;7263;49.418;11.064;2022-10-31T09:52:26;8.88;;;5.90;;
14358;SDS011;7263;49.418;11.064;2022-10-31T09:54:57;9.48;;;5.40;;
14358;SDS011;7263;49.418;11.064;2022-10-31T09:57:28;7.40;;;5.50;;
14358;SDS011;7263;49.418;11.064;2022-10-31T10:00:02;6.63;;;5.38;;
14358;SDS011;7263;49.418;11.064;2022-10-31T10:02:32;9.60;;;5.72;;
14358;SDS011;7263;49.418;11.064;2022-10-31T10:05:08;8.27;;;5.43;;
14358;SDS011;7263;49.418;11.064;2022-10-31T10:07:40;10.43;;;6.10;;
14358;SDS011;7263;49.418;11.064;2022-10-31T10:10:13;9.82;;;5.28;;
14358;SDS011;7263;49.418;11.064;2022-10-31T10:12:47;12.52;;;5.95;;
14358;SDS011;7263;49.418;11.064;2022-10-31T10:15:29;8.43;;;6.47;;
14358;SDS011;7263;49.418;11.064;2022-10-31T10:18:07;10.57;;;6.38;;
14358;SDS011;7263;49.418;11.064;2022-10-31T10:20:44;10.20;;;6.32;;
14358;SDS011;7263;49.418;11.064;2022-10-31T10:23:35;11.23;;;6.25;;
14358;SDS011;7263;49.418;11.064;2022-10-31T10:26:15;11.13;;;6.70;;
14358;SDS011;7263;49.418;11.064;2022-10-31T10:28:44;11.73;;;7.03;;
14358;SDS011;7263;49.418;11.064;2022-10-31T10:31:16;10.88;;;7.57;;
14358;SDS011;7263;49.418;11.064;2022-10-31T10:33:50;10.18;;;7.07;;
14358;SDS011;7263;49.418;11.064;2022-10-31T10:36:26;10.45;;;7.68;;
14358;SDS011;7263;49.418;11.064;2022-10-31T10:39:00;10.27;;;7.53;;
14358;SDS011;7263;49.418;11.064;2022-10-31T10:41:31;13.27;;;8.10;;
14358;SDS011;7263;49.418;11.064;2022-10-31T10:43:58;10.25;;;7.72;;
14358;SDS011;7263;49.418;11.064;2022-10-31T10:46:26;12.18;;;7.78;;
14358;SDS011;7263;49.418;11.064;2022-10-31T10:49:19;11.52;;;7.82;;
14358;SDS011;7263;49.418;11.064;2022-10-31T10:51:54;12.30;;;7.63;;
14358;SDS011;7263;49.418;11.064;2022-10-31T10:57:23;10.32;;;8.23;;
14358;SDS011;7263;49.418;11.064;2022-10-31T10:59:54;11.40;;;7.55;;
14358;SDS011;7263;49.418;11.064;2022-10-31T11:02:22;9.95;;;7.70;;
14358;SDS011;7263;49.418;11.064;2022-10-31T11:04:52;10.63;;;7.32;;
14358;SDS011;7263;49.418;11.064;2022-10-31T11:07:20;10.35;;;6.85;;
14358;SDS011;7263;49.418;11.064;2022-10-31T11:09:47;15.52;;;7.55;;
14358;SDS011;7263;49.418;11.064;2022-10-31T11:12:19;13.10;;;7.97;;
14358;SDS011;7263;49.418;11.064;2022-10-31T11:14:50;17.65;;;8.07;;
14358;SDS011;7263;49.418;11.064;2022-10-31T11:17:24;13.35;;;8.65;;
14358;SDS011;7263;49.418;11.064;2022-10-31T11:20:04;10.55;;;6.78;;
14358;SDS011;7263;49.418;11.064;2022-10-31T11:22:32;13.18;;;7.35;;
14358;SDS011;7263;49.418;11.064;2022-10-31T11:24:59;10.25;;;7.43;;
14358;SDS011;7263;49.418;11.064;2022-10-31T11:27:26;10.15;;;6.88;;
14358;SDS011;7263;49.418;11.064;2022-10-31T11:29:53;13.07;;;7.65;;
14358;SDS011;7263;49.418;11.064;2022-10-31T11:32:30;11.77;;;7.57;;
14358;SDS011;7263;49.418;11.064;2022-10-31T11:34:57;12.63;;;7.53;;
14358;SDS011;7263;49.418;11.064;2022-10-31T11:37:28;17.33;;;6.80;;
14358;SDS011;7263;49.418;11.064;2022-10-31T11:40:00;11.30;;;6.97;;
14358;SDS011;7263;49.418;11.064;2022-10-31T11:42:34;15.95;;;7.95;;
14358;SDS011;7263;49.418;11.064;2022-10-31T11:45:05;12.15;;;7.47;;
14358;SDS011;7263;49.418;11.064;2022-10-31T11:47:40;9.63;;;7.30;;
14358;SDS011;7263;49.418;11.064;2022-10-31T11:50:09;11.43;;;7.78;;
14358;SDS011;7263;49.418;11.064;2022-10-31T11:52:42;15.43;;;6.75;;
14358;SDS011;7263;49.418;11.064;2022-10-31T11:55:15;12.32;;;7.93;;
14358;SDS011;7263;49.418;11.064;2022-10-31T11:57:55;11.70;;;8.10;;
14358;SDS011;7263;49.418;11.064;2022-10-31T12:00:23;10.20;;;7.45;;
14358;SDS011;7263;49.418;11.064;2022-10-31T12:03:03;10.75;;;7.05;;
14358;SDS011;7263;49.418;11.064;2022-10-31T12:05:31;12.40;;;7.65;;
14358;SDS011;7263;49.418;11.064;2022-10-31T12:08:00;10.55;;;7.53;;
14358;SDS011;7263;49.418;11.064;2022-10-31T12:10:29;10.93;;;7.20;;
14358;SDS011;7263;49.418;11.064;2022-10-31T12:13:05;10.02;;;6.93;;
14358;SDS011;7263;49.418;11.064;2022-10-31T12:15:45;9.27;;;6.85;;
14358;SDS011;7263;49.418;11.064;2022-10-31T12:18:27;14.52;;;7.30;;
14358;SDS011;7263;49.418;11.064;2022-10-31T12:21:19;12.52;;;8.43;;
14358;SDS011;7263;49.418;11.064;2022-10-31T12:23:57;11.57;;;7.20;;
14358;SDS011;7263;49.418;11.064;2022-10-31T12:26:34;11.57;;;6.90;;
14358;SDS011;7263;49.418;11.064;2022-10-31T12:29:15;10.73;;;6.97;;
14358;SDS011;7263;49.418;11.064;2022-10-31T12:31:53;13.35;;;7.75;;
14358;SDS011;7263;49.418;11.064;2022-10-31T12:34:38;15.18;;;6.72;;
14358;SDS011;7263;49.418;11.064;2022-10-31T12:37:15;11.32;;;7.20;;
14358;SDS011;7263;49.418;11.064;2022-10-31T12:39:53;13.82;;;7.07;;
14358;SDS011;7263;49.418;11.064;2022-10-31T12:42:35;12.15;;;7.20;;
14358;SDS011;7263;49.418;11.064;2022-10-31T12:45:27;12.23;;;6.78;;
14358;SDS011;7263;49.418;11.064;2022-10-31T12:48:13;14.25;;;7.47;;
14358;SDS011;7263;49.418;11.064;2022-10-31T12:50:59;12.38;;;6.55;;
14358;SDS011;7263;49.418;11.064;2022-10-31T12:53:37;11.73;;;6.25;;
14358;SDS011;7263;49.418;11.064;2022-10-31T12:56:19;10.75;;;6.40;;
14358;SDS011;7263;49.418;11.064;2022-10-31T12:58:54;12.18;;;6.63;;
14358;SDS011;7263;49.418;11.064;2022-10-31T13:01:27;11.20;;;7.00;;
14358;SDS011;7263;49.418;11.064;2022-10-31T13:03:58;13.85;;;7.40;;
14358;SDS011;7263;49.418;11.064;2022-10-31T13:06:29;10.10;;;6.20;;
14358;SDS011;7263;49.418;11.064;2022-10-31T13:09:00;10.38;;;6.50;;
14358;SDS011;7263;49.418;11.064;2022-10-31T13:11:34;11.88;;;7.43;;
14358;SDS011;7263;49.418;11.064;2022-10-31T13:14:05;12.38;;;6.95;;
14358;SDS011;7263;49.418;11.064;2022-10-31T13:16:36;11.85;;;7.00;;
14358;SDS011;7263;49.418;11.064;2022-10-31T13:19:08;13.73;;;7.65;;
14358;SDS011;7263;49.418;11.064;2022-10-31T13:21:42;13.32;;;7.25;;
14358;SDS011;7263;49.418;11.064;2022-10-31T13:24:18;10.93;;;6.82;;
14358;SDS011;7263;49.418;11.064;2022-10-31T13:26:52;13.55;;;7.40;;
14358;SDS011;7263;49.418;11.064;2022-10-31T13:29:23;14.00;;;7.78;;
14358;SDS011;7263;49.418;11.064;2022-10-31T13:31:53;15.55;;;6.30;;
14358;SDS011;7263;49.418;11.064;2022-10-31T13:34:22;9.60;;;6.15;;
14358;SDS011;7263;49.418;11.064;2022-10-31T13:36:57;8.77;;;5.80;;
14358;SDS011;7263;49.418;11.064;2022-10-31T13:39:30;9.13;;;6.07;;
14358;SDS011;7263;49.418;11.064;2022-10-31T13:42:10;9.48;;;5.97;;
14358;SDS011;7263;49.418;11.064;2022-10-31T13:44:41;8.73;;;5.72;;
14358;SDS011;7263;49.418;11.064;2022-10-31T13:47:20;10.65;;;6.05;;
14358;SDS011;7263;49.418;11.064;2022-10-31T13:49:48;8.27;;;5.82;;
14358;SDS011;7263;49.418;11.064;2022-10-31T13:52:16;7.85;;;5.45;;
14358;SDS011;7263;49.418;11.064;2022-10-31T13:54:49;10.10;;;6.00;;
14358;SDS011;7263;49.418;11.064;2022-10-31T13:57:24;10.35;;;6.15;;
14358;SDS011;7263;49.418;11.064;2022-10-31T13:59:58;9.88;;;6.20;;
14358;SDS011;7263;49.418;11.064;2022-10-31T14:02:27;10.77;;;5.78;;
14358;SDS011;7263;49.418;11.064;2022-10-31T14:04:56;10.60;;;6.72;;
14358;SDS011;7263;49.418;11.064;2022-10-31T14:07:25;9.57;;;5.95;;
14358;SDS011;7263;49.418;11.064;2022-10-31T14:09:54;9.25;;;6.53;;
14358;SDS011;7263;49.418;11.064;2022-10-31T14:12:25;11.85;;;7.10;;
14358;SDS011;7263;49.418;11.064;2022-10-31T14:14:56;9.52;;;7.07;;
14358;SDS011;7263;49.418;11.064;2022-10-31T14:17:27;9.90;;;6.65;;
14358;SDS011;7263;49.418;11.064;2022-10-31T14:19:59;10.77;;;6.60;;
14358;SDS011;7263;49.418;11.064;2022-10-31T14:22:31;11.60;;;7.20;;
14358;SDS011;7263;49.418;11.064;2022-10-31T14:24:58;12.88;;;7.65;;
14358;SDS011;7263;49.418;11.064;2022-10-31T14:30:18;12.98;;;7.07;;
14358;SDS011;7263;49.418;11.064;2022-10-31T14:32:49;11.07;;;7.38;;
14358;SDS011;7263;49.418;11.064;2022-10-31T14:35:19;12.70;;;7.45;;
14358;SDS011;7263;49.418;11.064;2022-10-31T14:37:58;12.75;;;7.93;;
14358;SDS011;7263;49.418;11.064;2022-10-31T14:40:42;35.75;;;9.27;;
14358;SDS011;7263;49.418;11.064;2022-10-31T14:46:21;13.80;;;6.80;;
14358;SDS011;7263;49.418;11.064;2022-10-31T14:49:10;12.82;;;7.32;;
14358;SDS011;7263;49.418;11.064;2022-10-31T14:51:47;10.70;;;7.78;;
14358;SDS011;7263;49.418;11.064;2022-10-31T14:57:42;11.45;;;9.15;;
14358;SDS011;7263;49.418;11.064;2022-10-31T15:00:17;16.02;;;8.30;;
14358;SDS011;7263;49.418;11.064;2022-10-31T15:02:48;11.35;;;7.88;;
14358;SDS011;7263;49.418;11.064;2022-10-31T15:05:25;8.82;;;7.05;;
14358;SDS011;7263;49.418;11.064;2022-10-31T15:07:53;13.15;;;7.43;;
14358;SDS011;7263;49.418;11.064;2022-10-31T15:10:22;11.48;;;7.57;;
14358;SDS011;7263;49.418;11.064;2022-10-31T15:12:51;12.77;;;7.53;;
14358;SDS011;7263;49.418;11.064;2022-10-31T15:15:21;11.30;;;7.15;;
14358;SDS011;7263;49.418;11.064;2022-10-31T15:17:49;9.85;;;6.90;;